Time;durP1;ratioP1;P1;durP2;ratioP2;P2;SDS_P1;SDS_P2;PMS_P1;PMS_P2;Temp;Humidity;BMP_temperature;BMP_pressure;BME280_temperature;BME280_humidity;BME280_pressure;Samples;Min_cycle;Max_cycle;Signal;HPM_P1;HPM_P2
2023/06/11 00:00:31;;;;;;;14.20;13.00;;;;;;;23.33;60.46;97888.20;106392;1256;72006;-79
2023/06/11 00:02:58;;;;;;;14.10;12.90;;;;;;;23.34;60.63;97889.27;106164;1258;60404;-78
2023/06/11 00:05:29;;;;;;;13.10;12.00;;;;;;;23.33;60.67;97890.95;106222;1251;60388;-78
2023/06/11 00:08:00;;;;;;;13.80;12.70;;;;;;;23.33;60.60;97892.60;106214;1257;74640;-79
2023/06/11 00:10:28;;;;;;;13.00;11.90;;;;;;;23.33;60.59;97891.55;106305;1254;68414;-79
2023/06/11 00:12:56;;;;;;;12.40;11.40;;;;;;;23.33;60.59;97894.61;106321;1251;73501;-78
2023/06/11 00:15:24;;;;;;;13.10;12.00;;;;;;;23.33;60.54;97894.27;106211;1250;60513;-79
2023/06/11 00:17:51;;;;;;;13.20;12.20;;;;;;;23.33;60.51;97892.46;106376;1251;60428;-78
2023/06/11 00:20:20;;;;;;;12.40;11.40;;;;;;;23.32;60.63;97891.08;106295;1254;72763;-81
2023/06/11 00:22:48;;;;;;;12.40;11.40;;;;;;;23.33;60.51;97889.60;106076;1252;67821;-79
2023/06/11 00:25:15;;;;;;;12.60;11.60;;;;;;;23.32;60.49;97888.20;106233;1257;72187;-79
2023/06/11 00:27:43;;;;;;;13.00;11.80;;;;;;;23.33;60.57;97891.73;106208;1254;60332;-79
2023/06/11 00:30:11;;;;;;;12.60;11.50;;;;;;;23.32;60.59;97890.74;106075;1253;60412;-79
2023/06/11 00:32:39;;;;;;;12.60;11.60;;;;;;;23.32;60.59;97890.56;106165;1256;75330;-80
2023/06/11 00:35:08;;;;;;;12.30;11.20;;;;;;;23.32;60.59;97890.47;106155;1256;68254;-80
2023/06/11 00:37:37;;;;;;;12.30;11.30;;;;;;;23.32;60.52;97888.63;106380;1251;73903;-78
2023/06/11 00:40:08;;;;;;;11.40;10.40;;;;;;;23.32;60.48;97887.70;105869;1251;60566;-79
2023/06/11 00:42:36;;;;;;;11.50;10.50;;;;;;;23.32;60.60;97890.10;106168;1257;60381;-79
2023/06/11 00:45:05;;;;;;;11.50;10.60;;;;;;;23.31;60.55;97889.04;107857;1250;73044;-79
2023/06/11 00:47:33;;;;;;;11.60;10.60;;;;;;;23.31;60.47;97888.70;109626;1250;66742;-79
2023/06/11 00:50:08;;;;;;;11.80;10.80;;;;;;;23.32;60.50;97886.81;108199;1250;71668;-79
2023/06/11 00:52:36;;;;;;;11.30;10.30;;;;;;;23.33;60.65;97885.02;106588;1251;60445;-78
2023/06/11 00:55:04;;;;;;;10.70;9.80;;;;;;;23.34;60.54;97886.36;106645;1251;60449;-79
2023/06/11 00:58:49;;;;;;;10.50;9.70;;;;;;;23.37;60.38;97880.23;106155;1290;599363;-79
2023/06/11 01:01:25;;;;;;;10.50;9.60;;;;;;;23.36;60.48;97881.45;108876;1260;59576;-80
2023/06/11 01:03:56;;;;;;;10.30;9.50;;;;;;;23.38;60.51;97879.95;105464;1268;59134;-79
2023/06/11 01:06:28;;;;;;;10.60;9.70;;;;;;;23.39;60.50;97880.54;105319;1261;72658;-79
2023/06/11 01:08:57;;;;;;;10.40;9.50;;;;;;;23.40;60.46;97880.97;105459;1263;69891;-78
2023/06/11 01:11:34;;;;;;;10.80;9.90;;;;;;;23.40;60.40;97876.92;105155;1260;201710;-78
2023/06/11 01:14:07;;;;;;;10.40;9.50;;;;;;;23.40;60.31;97880.20;105345;1266;59167;-78
2023/06/11 01:16:47;;;;;;;10.40;9.60;;;;;;;23.40;60.29;97877.42;105586;1258;60364;-78
2023/06/11 01:19:44;;;;;;;10.20;9.40;;;;;;;23.40;60.22;97875.32;105569;1261;71294;-79
2023/06/11 01:22:17;;;;;;;10.20;9.40;;;;;;;23.39;60.25;97874.80;105585;1260;67733;-79
2023/06/11 01:25:03;;;;;;;9.80;9.00;;;;;;;23.39;60.22;97879.02;105553;1259;72135;-78
2023/06/11 01:27:58;;;;;;;10.40;9.50;;;;;;;23.38;60.14;97878.80;105455;1262;61631;-78
2023/06/11 01:30:28;;;;;;;10.10;9.30;;;;;;;23.38;60.27;97876.27;105340;1266;59536;-79
2023/06/11 01:32:57;;;;;;;9.20;8.50;;;;;;;23.38;60.18;97880.48;105386;1266;71980;-79
2023/06/11 01:35:30;;;;;;;9.80;9.00;;;;;;;23.37;60.31;97883.89;105679;1253;68682;-78
2023/06/11 01:37:59;;;;;;;10.20;9.30;;;;;;;23.37;60.30;97882.30;105638;1253;72804;-78
2023/06/11 01:40:35;;;;;;;10.20;9.30;;;;;;;23.36;60.36;97880.55;105926;1253;60168;-79
2023/06/11 01:43:04;;;;;;;9.70;8.80;;;;;;;23.35;60.29;97881.23;106017;1253;60213;-79
2023/06/11 01:45:33;;;;;;;9.70;8.80;;;;;;;23.34;60.31;97877.48;105952;1253;72811;-79
2023/06/11 01:48:01;;;;;;;9.10;8.40;;;;;;;23.34;60.48;97877.30;105799;1253;67775;-79
2023/06/11 01:50:30;;;;;;;9.40;8.60;;;;;;;23.34;60.41;97877.59;105833;1254;73281;-78
2023/06/11 01:52:58;;;;;;;8.90;8.20;;;;;;;23.33;60.36;97877.63;105816;1253;59614;-78
2023/06/11 01:55:28;;;;;;;8.80;8.00;;;;;;;23.33;60.42;97874.89;105624;1254;59614;-79
2023/06/11 01:57:56;;;;;;;8.30;7.60;;;;;;;23.33;60.35;97873.54;105836;1253;72328;-78
2023/06/11 02:00:24;;;;;;;8.80;8.10;;;;;;;23.32;60.35;97873.07;105913;1253;69733;-79
2023/06/11 02:02:52;;;;;;;8.50;7.80;;;;;;;23.32;60.45;97879.48;105833;1253;71292;-79
2023/06/11 02:05:21;;;;;;;9.10;8.40;;;;;;;23.31;60.47;97877.70;106124;1253;61034;-79
2023/06/11 02:07:49;;;;;;;9.70;8.80;;;;;;;23.31;60.49;97878.08;106012;1253;60398;-79
2023/06/11 02:10:18;;;;;;;8.70;8.00;;;;;;;23.31;60.39;97879.38;105876;1258;72364;-79
2023/06/11 02:12:46;;;;;;;8.90;8.20;;;;;;;23.31;60.47;97882.85;106168;1254;69504;-81
2023/06/11 02:15:14;;;;;;;7.70;7.10;;;;;;;23.31;60.46;97886.10;105694;1254;71910;-79
2023/06/11 02:17:42;;;;;;;9.30;8.50;;;;;;;23.31;60.37;97885.45;105839;1256;60483;-78
2023/06/11 02:20:13;;;;;;;8.40;7.70;;;;;;;23.30;60.43;97885.19;105730;1258;60270;-80
2023/06/11 02:22:42;;;;;;;8.80;8.00;;;;;;;23.31;60.46;97891.69;105890;1253;72168;-79
2023/06/11 02:25:10;;;;;;;8.70;8.00;;;;;;;23.30;60.34;97887.96;105858;1254;69126;-79
2023/06/11 02:27:39;;;;;;;8.20;7.50;;;;;;;23.30;60.50;97891.77;109230;1252;72221;-79
2023/06/11 02:30:08;;;;;;;7.00;6.40;;;;;;;23.30;60.56;97892.15;109396;1251;58936;-79
2023/06/11 02:32:36;;;;;;;8.50;7.70;;;;;;;23.31;60.44;97892.41;109283;1253;60006;-79
2023/06/11 02:35:04;;;;;;;9.60;8.50;;;;;;;23.31;60.46;97890.30;109201;1252;73094;-80
2023/06/11 02:37:32;;;;;;;8.70;8.00;;;;;;;23.33;60.44;97894.77;109569;1253;67687;-78
2023/06/11 02:40:01;;;;;;;8.20;7.50;;;;;;;23.35;60.37;97892.40;109358;1253;73090;-78
2023/06/11 02:42:29;;;;;;;7.70;7.10;;;;;;;23.37;60.32;97892.70;109387;1253;60112;-79
2023/06/11 02:44:57;;;;;;;7.50;6.90;;;;;;;23.39;60.27;97895.70;109238;1253;59416;-78
2023/06/11 02:47:25;;;;;;;7.40;6.80;;;;;;;23.41;60.16;97891.46;109410;1252;73440;-78
2023/06/11 02:49:53;;;;;;;8.10;7.40;;;;;;;23.43;60.05;97893.93;109293;1253;67666;-79
2023/06/11 02:52:21;;;;;;;8.10;7.50;;;;;;;23.45;60.01;97894.19;109300;1252;74856;-79
2023/06/11 02:54:50;;;;;;;7.50;6.90;;;;;;;23.47;59.97;97891.63;109257;1252;62203;-79
2023/06/11 02:57:18;;;;;;;7.40;6.80;;;;;;;23.49;59.92;97888.08;109528;1252;60101;-79
2023/06/11 02:59:46;;;;;;;7.10;6.50;;;;;;;23.50;60.02;97888.77;109388;1253;74024;-79
2023/06/11 03:02:14;;;;;;;7.10;6.50;;;;;;;23.51;59.83;97889.55;109314;1253;68682;-79
2023/06/11 03:04:43;;;;;;;6.70;6.20;;;;;;;23.53;59.77;97888.76;109178;1253;72132;-78
2023/06/11 03:07:11;;;;;;;7.20;6.60;;;;;;;23.54;59.69;97890.06;109192;1252;60572;-78
2023/06/11 03:09:40;;;;;;;6.60;6.10;;;;;;;23.56;59.62;97890.60;109172;1253;59314;-78
2023/06/11 03:12:08;;;;;;;7.20;6.70;;;;;;;23.57;59.66;97888.80;109574;1253;73175;-78
2023/06/11 03:14:38;;;;;;;7.10;6.50;;;;;;;23.58;59.63;97892.66;109290;1253;68844;-79
2023/06/11 03:17:06;;;;;;;6.70;6.10;;;;;;;23.59;59.52;97894.90;109288;1253;71888;-80
2023/06/11 03:19:34;;;;;;;6.50;6.00;;;;;;;23.60;59.49;97892.42;109467;1253;60194;-79
2023/06/11 03:22:03;;;;;;;6.20;5.70;;;;;;;23.61;59.42;97896.27;109203;1254;58825;-79
2023/06/11 03:24:32;;;;;;;6.70;6.20;;;;;;;23.62;59.42;97896.52;109205;1253;72198;-79
2023/06/11 03:27:08;;;;;;;7.20;6.70;;;;;;;23.63;59.35;97898.21;109206;1253;68582;-79
2023/06/11 03:29:37;;;;;;;7.20;6.60;;;;;;;23.63;59.35;97898.72;109156;1252;71688;-79
2023/06/11 03:32:06;;;;;;;7.10;6.50;;;;;;;23.65;59.12;97896.74;109536;1254;58898;-79
2023/06/11 03:34:35;;;;;;;6.90;6.30;;;;;;;23.65;59.20;97900.52;109411;1251;60068;-79
2023/06/11 03:37:04;;;;;;;6.70;6.20;;;;;;;23.66;59.28;97901.09;109567;1252;72308;-79
2023/06/11 03:39:32;;;;;;;6.40;5.90;;;;;;;23.67;59.11;97904.14;109687;1251;69339;-79
2023/06/11 03:42:58;;;;;;;7.00;6.30;;;;;;;23.69;59.12;97904.57;105399;1294;599395;-80
2023/06/11 03:45:28;;;;;;;6.00;5.50;;;;;;;23.68;59.06;97902.50;105179;1264;60562;-79
2023/06/11 03:47:57;;;;;;;6.70;6.20;;;;;;;23.68;59.09;97904.73;105129;1269;62494;-79
2023/06/11 03:50:26;;;;;;;6.90;6.30;;;;;;;23.67;59.16;97905.33;105014;1264;71758;-79
2023/06/11 03:52:54;;;;;;;6.60;6.10;;;;;;;23.67;59.03;97901.23;104897;1264;69433;-79
2023/06/11 03:55:22;;;;;;;6.30;5.70;;;;;;;23.65;59.14;97901.80;104864;1267;198353;-79
2023/06/11 03:57:51;;;;;;;6.40;5.90;;;;;;;23.64;59.18;97904.55;105353;1269;60615;-79
2023/06/11 04:00:19;;;;;;;7.20;6.60;;;;;;;23.62;59.02;97904.91;105224;1269;59573;-78
2023/06/11 04:02:47;;;;;;;6.30;5.80;;;;;;;23.60;59.24;97909.38;105518;1260;73054;-78
2023/06/11 04:05:16;;;;;;;6.00;5.50;;;;;;;23.58;59.08;97913.33;106087;1266;67691;-79
2023/06/11 04:07:50;;;;;;;6.30;5.80;;;;;;;23.56;59.17;97907.89;105947;1261;72983;-79
2023/06/11 04:10:19;;;;;;;6.50;6.00;;;;;;;23.55;59.29;97912.80;105690;1254;62378;-79
2023/06/11 04:12:48;;;;;;;5.90;5.50;;;;;;;23.53;59.30;97913.59;105715;1262;59558;-78
2023/06/11 04:15:16;;;;;;;6.50;6.00;;;;;;;23.52;59.28;97913.36;105779;1262;73260;-78
2023/06/11 04:17:45;;;;;;;6.10;5.60;;;;;;;23.51;59.44;97912.09;105826;1261;69355;-79
2023/06/11 04:20:14;;;;;;;6.10;5.60;;;;;;;23.49;59.42;97909.96;105882;1262;72759;-79
2023/06/11 04:22:43;;;;;;;6.20;5.70;;;;;;;23.49;59.49;97911.48;105757;1255;59736;-79
2023/06/11 04:25:12;;;;;;;6.50;6.00;;;;;;;23.48;59.46;97912.36;107139;1251;59019;-80
2023/06/11 04:27:40;;;;;;;5.30;4.90;;;;;;;23.45;59.60;97917.33;109685;1250;74685;-80
2023/06/11 04:30:12;;;;;;;5.70;5.20;;;;;;;23.44;59.54;97915.44;108442;1260;70025;-80
2023/06/11 04:32:42;;;;;;;6.20;5.70;;;;;;;23.44;59.60;97916.92;106573;1257;72631;-80
2023/06/11 04:35:11;;;;;;;5.80;5.40;;;;;;;23.44;59.67;97917.47;106364;1252;62817;-78
2023/06/11 04:37:45;;;;;;;6.10;5.60;;;;;;;23.44;59.64;97916.58;106123;1251;60185;-77
2023/06/11 04:40:20;;;;;;;7.20;5.10;;;;;;;23.44;59.66;97918.81;106059;1251;71823;-79
2023/06/11 04:42:49;;;;;;;5.60;5.10;;;;;;;23.43;59.68;97920.48;106212;1260;70073;-79
2023/06/11 04:45:20;;;;;;;5.60;5.20;;;;;;;23.43;59.68;97921.80;106257;1260;72105;-78
2023/06/11 04:47:50;;;;;;;6.30;5.80;;;;;;;23.42;59.62;97926.64;106911;1251;62578;-80
2023/06/11 04:50:20;;;;;;;5.80;5.30;;;;;;;23.42;59.73;97925.23;106470;1251;60121;-78
2023/06/11 04:52:56;;;;;;;5.10;4.70;;;;;;;23.41;59.71;97923.39;106269;1252;72400;-79
2023/06/11 04:55:26;;;;;;;5.90;5.40;;;;;;;23.41;59.72;97924.82;106221;1256;68816;-79
2023/06/11 04:57:57;;;;;;;6.10;5.60;;;;;;;23.40;59.79;97924.42;106054;1258;71224;-79
2023/06/11 05:00:29;;;;;;;5.30;4.90;;;;;;;23.39;59.79;97928.13;106195;1251;60185;-79
2023/06/11 05:03:01;;;;;;;5.70;5.30;;;;;;;23.39;59.80;97930.02;106153;1259;60692;-79
2023/06/11 05:05:32;;;;;;;6.10;5.60;;;;;;;23.39;59.80;97928.97;106143;1259;75587;-78
2023/06/11 05:08:02;;;;;;;5.30;4.90;;;;;;;23.38;59.79;97930.91;106341;1251;68680;-79
2023/06/11 05:10:30;;;;;;;5.70;5.30;;;;;;;23.38;59.87;97931.31;106041;1258;73607;-78
2023/06/11 05:12:59;;;;;;;4.80;4.40;;;;;;;23.37;59.81;97932.29;106264;1252;59656;-80
2023/06/11 05:15:32;;;;;;;6.40;5.90;;;;;;;23.36;59.84;97932.02;106434;1251;59945;-80
2023/06/11 05:18:00;;;;;;;6.10;5.60;;;;;;;23.35;59.87;97932.75;106250;1251;71990;-79
2023/06/11 05:20:29;;;;;;;6.00;5.60;;;;;;;23.34;59.84;97927.73;106346;1257;69044;-79
2023/06/11 05:22:59;;;;;;;6.30;5.80;;;;;;;23.35;59.98;97932.27;106614;1254;72733;-80
2023/06/11 05:25:30;;;;;;;5.70;5.30;;;;;;;23.33;60.06;97933.14;106105;1251;60604;-79
2023/06/11 05:28:01;;;;;;;6.00;5.50;;;;;;;23.33;59.86;97935.17;106353;1251;61114;-79
2023/06/11 05:30:36;;;;;;;5.80;5.40;;;;;;;23.33;59.98;97935.80;106267;1251;72892;-80
2023/06/11 05:33:07;;;;;;;6.00;5.60;;;;;;;23.33;59.95;97940.09;106338;1257;67659;-79
2023/06/11 05:35:36;;;;;;;6.70;6.20;;;;;;;23.33;59.99;97935.03;106236;1251;73364;-79
2023/06/11 05:38:06;;;;;;;6.20;5.70;;;;;;;23.32;59.95;97938.07;106327;1256;60269;-79
2023/06/11 05:40:38;;;;;;;6.30;5.80;;;;;;;23.32;60.06;97937.77;106131;1251;60411;-80
2023/06/11 05:43:06;;;;;;;7.00;6.40;;;;;;;23.31;60.05;97941.98;106020;1251;73876;-79
2023/06/11 05:45:35;;;;;;;7.20;6.60;;;;;;;23.31;60.12;97941.89;106235;1256;69673;-79
2023/06/11 05:48:06;;;;;;;6.60;6.00;;;;;;;23.31;60.18;97945.36;106213;1252;73548;-78
2023/06/11 05:50:36;;;;;;;7.20;6.60;;;;;;;23.30;60.13;97944.38;106016;1251;60707;-79
2023/06/11 05:53:04;;;;;;;6.60;6.10;;;;;;;23.30;60.15;97949.31;106281;1251;59567;-79
2023/06/11 05:55:33;;;;;;;7.20;6.60;;;;;;;23.30;60.07;97947.31;106219;1251;75472;-78
2023/06/11 05:58:01;;;;;;;7.40;6.80;;;;;;;23.30;60.23;97952.30;106098;1260;69224;-79
2023/06/11 06:00:30;;;;;;;7.30;6.70;;;;;;;23.29;60.08;97951.41;106230;1251;71338;-79
2023/06/11 06:02:58;;;;;;;7.20;6.60;;;;;;;23.29;60.11;97953.65;106095;1251;60221;-79
2023/06/11 06:05:28;;;;;;;7.50;6.90;;;;;;;23.29;60.17;97959.45;105967;1257;60204;-80
2023/06/11 06:07:56;;;;;;;7.10;6.50;;;;;;;23.28;60.16;97960.70;106128;1251;72553;-79
2023/06/11 06:10:25;;;;;;;6.90;6.30;;;;;;;23.28;60.21;97965.09;106870;1251;71030;-79
2023/06/11 06:12:53;;;;;;;8.10;7.40;;;;;;;23.28;60.18;97965.65;106109;1256;73193;-78
2023/06/11 06:15:21;;;;;;;6.80;6.30;;;;;;;23.27;60.17;97963.70;106240;1252;59742;-79
2023/06/11 06:17:50;;;;;;;7.60;7.00;;;;;;;23.27;60.14;97966.31;106189;1252;59714;-79
2023/06/11 06:20:25;;;;;;;6.80;6.30;;;;;;;23.27;60.27;97965.73;107802;1256;72473;-79
2023/06/11 06:22:53;;;;;;;8.40;7.70;;;;;;;23.27;60.30;97963.73;109555;1251;69916;-79
2023/06/11 06:25:24;;;;;;;7.90;7.30;;;;;;;23.27;60.15;97970.65;109447;1251;71694;-80
2023/06/11 06:27:53;;;;;;;7.50;6.90;;;;;;;23.28;60.21;97970.33;107690;1257;59119;-80
2023/06/11 06:30:22;;;;;;;8.20;7.60;;;;;;;23.30;60.19;97973.67;107137;1256;61957;-79
2023/06/11 06:32:50;;;;;;;7.60;7.00;;;;;;;23.31;60.19;97975.70;106104;1259;73267;-78
2023/06/11 06:35:19;;;;;;;7.50;6.90;;;;;;;23.31;60.12;97978.36;106269;1252;69483;-79
2023/06/11 06:37:47;;;;;;;7.20;6.60;;;;;;;23.32;60.13;97982.29;105967;1252;72705;-78
2023/06/11 06:40:16;;;;;;;8.00;7.30;;;;;;;23.32;60.16;97982.12;105798;1255;60188;-80
2023/06/11 06:48:55;;;;;;;7.70;7.10;;;;;;;23.34;60.09;97984.16;102878;1290;599459;-79
2023/06/11 06:51:24;;;;;;;8.30;7.70;;;;;;;23.33;60.01;97987.43;105002;1267;59207;-79
2023/06/11 06:53:52;;;;;;;7.70;7.10;;;;;;;23.34;59.94;97990.06;105064;1275;59331;-79
2023/06/11 06:56:21;;;;;;;8.30;7.70;;;;;;;23.34;59.92;97990.27;105026;1266;71718;-79
2023/06/11 06:58:50;;;;;;;8.80;8.10;;;;;;;23.34;59.93;97990.06;105310;1272;68163;-79
2023/06/11 07:01:18;;;;;;;8.40;7.80;;;;;;;23.34;59.89;97995.58;105333;1267;74546;-79
2023/06/11 07:03:46;;;;;;;8.30;7.60;;;;;;;23.33;60.01;97996.37;105076;1267;59629;-80
2023/06/11 07:06:16;;;;;;;7.80;7.20;;;;;;;23.34;59.99;97997.73;105624;1264;59370;-79
2023/06/11 07:08:44;;;;;;;8.30;7.60;;;;;;;23.33;59.86;97999.15;105812;1264;72871;-79
2023/06/11 07:11:15;;;;;;;7.70;7.10;;;;;;;23.33;59.96;97999.52;105825;1263;67195;-79
2023/06/11 07:13:45;;;;;;;8.50;7.90;;;;;;;23.32;59.79;98004.55;106000;1257;73299;-78
2023/06/11 07:16:14;;;;;;;7.90;7.30;;;;;;;23.32;60.05;98003.15;105717;1260;61838;-80
2023/06/11 07:18:50;;;;;;;8.70;8.00;;;;;;;23.31;60.01;98004.28;105889;1263;59464;-80
2023/06/11 07:21:19;;;;;;;7.90;7.20;;;;;;;23.31;59.92;98003.64;105692;1256;71479;-80
2023/06/11 07:23:47;;;;;;;8.00;7.40;;;;;;;23.31;59.94;98007.86;106060;1258;68636;-80
2023/06/11 07:26:17;;;;;;;8.40;7.80;;;;;;;23.30;60.03;98009.58;106010;1257;72962;-79
2023/06/11 07:28:46;;;;;;;7.50;6.90;;;;;;;23.30;60.07;98009.36;105789;1257;59994;-79
2023/06/11 07:31:14;;;;;;;7.40;6.80;;;;;;;23.29;60.13;98006.80;105817;1257;61159;-79
2023/06/11 07:33:44;;;;;;;7.80;7.20;;;;;;;23.29;60.16;98010.46;105801;1263;72070;-79
2023/06/11 07:36:12;;;;;;;7.90;7.30;;;;;;;23.29;60.02;98009.58;105791;1262;68464;-80
2023/06/11 07:38:42;;;;;;;7.70;7.10;;;;;;;23.28;60.11;98016.57;105739;1257;73332;-79
2023/06/11 07:41:11;;;;;;;7.80;7.20;;;;;;;23.27;60.11;98015.41;105988;1263;59759;-79
2023/06/11 07:43:39;;;;;;;7.40;6.80;;;;;;;23.27;60.14;98019.64;105793;1259;60314;-79
2023/06/11 07:46:09;;;;;;;7.50;6.90;;;;;;;23.27;59.99;98018.19;105708;1266;75377;-79
2023/06/11 07:48:41;;;;;;;7.50;6.90;;;;;;;23.26;60.09;98018.08;105739;1264;69074;-79
2023/06/11 07:51:10;;;;;;;7.70;7.10;;;;;;;23.26;60.10;98019.58;106045;1257;71656;-79
2023/06/11 07:53:38;;;;;;;7.70;7.10;;;;;;;23.26;60.19;98021.02;105993;1254;59727;-79
2023/06/11 07:56:07;;;;;;;7.50;6.90;;;;;;;23.26;59.97;98019.80;106203;1256;60162;-81
2023/06/11 07:58:36;;;;;;;7.40;6.80;;;;;;;23.25;60.09;98019.70;106022;1254;72286;-80
2023/06/11 08:01:04;;;;;;;7.30;6.70;;;;;;;23.25;60.14;98025.14;106171;1257;69396;-78
2023/06/11 08:03:33;;;;;;;7.10;6.50;;;;;;;23.24;59.98;98026.31;106302;1255;71370;-79
2023/06/11 08:06:01;;;;;;;7.10;6.60;;;;;;;23.24;60.06;98031.35;107757;1253;59637;-80
2023/06/11 08:08:29;;;;;;;7.20;6.60;;;;;;;23.24;60.04;98028.72;109444;1254;58696;-79
2023/06/11 08:10:58;;;;;;;7.60;7.00;;;;;;;23.26;60.09;98030.75;108441;1251;61494;-81
